Startpagina
METAR-TAF:

METAR-TAF

Vliegvelden :

RAF Fairford

Fairford, Engeland

breedte: 51-41N, lengte: 001-47W, hoogte: 87 m

Actueel weer

Dit bericht is 19 minuten geleden gemaakt, om 10:20 UTC
Wind 6 kt uit het westen
Temperatuur 22°C
Vochtigheid 60%
Druk 1014 hPa
Zicht 10 km of meer
Weinig wolken op 3000 ft
Geheel bewolkt op 20000 ft

METAR: EGVA 171020Z 26006KT 9999 FEW030 OVC200 22/14 Q1014 NOSIG RMK BLU BLU

Tijdstip: 11:39 (10:39 UTC)

Verwachting

Dit bericht is 2 uur en het 54 minuten geleden gemaakt, om 07:45 UTC
Verwachting geldig van 17 om 09 UTC tot 17 om 18 UTC
Wind 6 kt uit het westzuidwesten
Zicht 10 km of meer
Weinig wolken op 3000 ft

TAF: EGVA 170745Z 1709/1718 25006KT 9999 FEW030

Waarnemingen en weersverwachtingen van meer dan 4000 vliegvelden (METAR en TAF).

De beschikbare stations zijn de gele en rode punten op de kaart.

Ga met uw muis naar het station om de naam te zien.

Klik dan om waarnemingen en weersverwachtingen te zien.

kaart wijzigen: klik op de groene knoppen met een zwart kruis om in te zoomen, op de groene knop met een streepje om uit te zoomen of op de groene pijlen voor aangrenzende kaarten.


METAR-TAF: